sensor_id;sensor_type;location;lat;lon;timestamp;temperature;humidity
28010;DHT22;15334;49.494;8.410;2024-03-08T05:52:33;3.60;99.90
28010;DHT22;15334;49.494;8.410;2024-03-08T05:55:02;3.80;99.90
28010;DHT22;15334;49.494;8.410;2024-03-08T05:57:30;3.80;99.90
28010;DHT22;15334;49.494;8.410;2024-03-08T05:59:57;3.80;99.90
28010;DHT22;15334;49.494;8.410;2024-03-08T17:01:33;10.20;95.20
28010;DHT22;15334;49.494;8.410;2024-03-08T17:04:02;10.20;96.50
28010;DHT22;15334;49.494;8.410;2024-03-08T17:06:30;10.20;96.70
28010;DHT22;15334;49.494;8.410;2024-03-08T17:08:58;10.20;96.00
28010;DHT22;15334;49.494;8.410;2024-03-08T17:11:26;10.20;96.10
28010;DHT22;15334;49.494;8.410;2024-03-08T17:13:55;10.20;96.90
28010;DHT22;15334;49.494;8.410;2024-03-08T17:16:23;10.20;97.10
28010;DHT22;15334;49.494;8.410;2024-03-08T17:18:54;10.20;97.40
28010;DHT22;15334;49.494;8.410;2024-03-08T17:21:25;10.10;97.10
28010;DHT22;15334;49.494;8.410;2024-03-08T17:23:53;10.00;97.40
28010;DHT22;15334;49.494;8.410;2024-03-08T17:28:52;10.00;96.60
28010;DHT22;15334;49.494;8.410;2024-03-08T17:31:20;9.60;99.90
28010;DHT22;15334;49.494;8.410;2024-03-08T17:33:48;9.80;97.10
28010;DHT22;15334;49.494;8.410;2024-03-08T17:36:17;9.90;96.80
28010;DHT22;15334;49.494;8.410;2024-03-08T17:38:46;9.80;96.80
28010;DHT22;15334;49.494;8.410;2024-03-08T17:41:16;9.80;97.10
28010;DHT22;15334;49.494;8.410;2024-03-08T17:43:50;9.80;97.30
28010;DHT22;15334;49.494;8.410;2024-03-08T17:46:17;9.80;97.30
28010;DHT22;15334;49.494;8.410;2024-03-08T17:48:46;9.70;96.90
28010;DHT22;15334;49.494;8.410;2024-03-08T17:51:13;9.70;96.80
28010;DHT22;15334;49.494;8.410;2024-03-08T17:53:44;9.70;97.40
28010;DHT22;15334;49.494;8.410;2024-03-08T17:56:13;9.70;97.00
28010;DHT22;15334;49.494;8.410;2024-03-08T17:58:41;9.70;97.30
28010;DHT22;15334;49.494;8.410;2024-03-08T18:01:09;9.60;97.20
28010;DHT22;15334;49.494;8.410;2024-03-08T18:03:39;9.50;98.00
28010;DHT22;15334;49.494;8.410;2024-03-08T18:06:07;9.50;97.60
28010;DHT22;15334;49.494;8.410;2024-03-08T18:08:35;9.40;97.90
28010;DHT22;15334;49.494;8.410;2024-03-08T18:11:06;9.30;97.90
28010;DHT22;15334;49.494;8.410;2024-03-08T18:13:35;9.30;97.80
28010;DHT22;15334;49.494;8.410;2024-03-08T18:16:03;9.20;97.80
28010;DHT22;15334;49.494;8.410;2024-03-08T18:18:34;9.20;97.60
28010;DHT22;15334;49.494;8.410;2024-03-08T18:21:03;9.20;97.80
28010;DHT22;15334;49.494;8.410;2024-03-08T18:23:32;9.20;98.20
28010;DHT22;15334;49.494;8.410;2024-03-08T18:26:00;9.20;98.00
28010;DHT22;15334;49.494;8.410;2024-03-08T18:28:30;9.20;97.80
28010;DHT22;15334;49.494;8.410;2024-03-08T18:30:58;9.20;98.00
28010;DHT22;15334;49.494;8.410;2024-03-08T18:33:27;9.20;98.10
28010;DHT22;15334;49.494;8.410;2024-03-08T18:35:59;9.10;98.60
28010;DHT22;15334;49.494;8.410;2024-03-08T18:38:27;9.10;98.50
28010;DHT22;15334;49.494;8.410;2024-03-08T18:40:55;9.00;98.80
28010;DHT22;15334;49.494;8.410;2024-03-08T18:43:24;9.00;99.00
28010;DHT22;15334;49.494;8.410;2024-03-08T18:45:55;9.00;98.40
28010;DHT22;15334;49.494;8.410;2024-03-08T18:48:24;9.00;98.50
28010;DHT22;15334;49.494;8.410;2024-03-08T18:50:53;9.00;98.40
28010;DHT22;15334;49.494;8.410;2024-03-08T18:53:21;9.00;98.50
28010;DHT22;15334;49.494;8.410;2024-03-08T18:55:49;8.90;99.90
28010;DHT22;15334;49.494;8.410;2024-03-08T18:58:18;8.90;99.90
28010;DHT22;15334;49.494;8.410;2024-03-08T19:01:02;8.80;99.50
28010;DHT22;15334;49.494;8.410;2024-03-08T19:03:32;8.70;99.60
28010;DHT22;15334;49.494;8.410;2024-03-08T19:06:01;8.50;99.70
28010;DHT22;15334;49.494;8.410;2024-03-08T19:08:29;8.40;99.20
28010;DHT22;15334;49.494;8.410;2024-03-08T19:10:59;8.30;99.80
28010;DHT22;15334;49.494;8.410;2024-03-08T19:13:27;8.20;99.90
28010;DHT22;15334;49.494;8.410;2024-03-08T19:15:55;8.20;99.90
28010;DHT22;15334;49.494;8.410;2024-03-08T19:18:24;8.10;99.90
28010;DHT22;15334;49.494;8.410;2024-03-08T19:20:53;8.00;99.90
28010;DHT22;15334;49.494;8.410;2024-03-08T19:23:23;7.90;99.90
28010;DHT22;15334;49.494;8.410;2024-03-08T19:25:51;7.80;99.90
28010;DHT22;15334;49.494;8.410;2024-03-08T19:28:19;7.80;99.90
28010;DHT22;15334;49.494;8.410;2024-03-08T19:30:48;7.70;99.90
28010;DHT22;15334;49.494;8.410;2024-03-08T19:33:17;7.60;99.90
28010;DHT22;15334;49.494;8.410;2024-03-08T19:35:49;7.60;99.90
28010;DHT22;15334;49.494;8.410;2024-03-08T19:38:16;7.50;99.90
28010;DHT22;15334;49.494;8.410;2024-03-08T19:40:45;7.40;99.90
28010;DHT22;15334;49.494;8.410;2024-03-08T19:43:14;7.40;99.90
28010;DHT22;15334;49.494;8.410;2024-03-08T19:45:43;7.30;99.90
28010;DHT22;15334;49.494;8.410;2024-03-08T19:48:12;7.30;99.90
28010;DHT22;15334;49.494;8.410;2024-03-08T19:50:45;7.20;99.90
28010;DHT22;15334;49.494;8.410;2024-03-08T19:53:15;7.20;99.90
28010;DHT22;15334;49.494;8.410;2024-03-08T19:55:45;7.10;99.90
28010;DHT22;15334;49.494;8.410;2024-03-08T19:58:17;7.00;99.90
28010;DHT22;15334;49.494;8.410;2024-03-08T20:00:46;7.00;99.90
28010;DHT22;15334;49.494;8.410;2024-03-08T20:03:15;6.90;99.90
28010;DHT22;15334;49.494;8.410;2024-03-08T20:05:49;6.80;99.90
28010;DHT22;15334;49.494;8.410;2024-03-08T20:08:22;6.70;99.90
28010;DHT22;15334;49.494;8.410;2024-03-08T20:10:54;6.60;99.90
28010;DHT22;15334;49.494;8.410;2024-03-08T20:13:23;6.70;99.90
28010;DHT22;15334;49.494;8.410;2024-03-08T20:15:50;6.60;99.90
28010;DHT22;15334;49.494;8.410;2024-03-08T20:18:21;6.60;99.90
28010;DHT22;15334;49.494;8.410;2024-03-08T20:20:53;6.60;99.90
28010;DHT22;15334;49.494;8.410;2024-03-08T20:23:23;6.60;99.90
28010;DHT22;15334;49.494;8.410;2024-03-08T20:25:51;6.70;99.90
28010;DHT22;15334;49.494;8.410;2024-03-08T20:28:19;6.70;99.90
28010;DHT22;15334;49.494;8.410;2024-03-08T20:30:47;6.80;99.90
28010;DHT22;15334;49.494;8.410;2024-03-08T20:33:15;6.90;99.90
28010;DHT22;15334;49.494;8.410;2024-03-08T20:35:43;6.90;99.90
28010;DHT22;15334;49.494;8.410;2024-03-08T20:38:11;7.00;99.90
28010;DHT22;15334;49.494;8.410;2024-03-08T20:40:48;7.00;99.90
28010;DHT22;15334;49.494;8.410;2024-03-08T20:43:17;7.10;99.90
28010;DHT22;15334;49.494;8.410;2024-03-08T20:45:47;7.10;99.90
28010;DHT22;15334;49.494;8.410;2024-03-08T20:48:16;7.10;99.90
28010;DHT22;15334;49.494;8.410;2024-03-08T20:50:48;7.20;99.90
28010;DHT22;15334;49.494;8.410;2024-03-08T20:53:16;7.30;99.90
28010;DHT22;15334;49.494;8.410;2024-03-08T20:55:45;7.40;99.90
28010;DHT22;15334;49.494;8.410;2024-03-08T20:58:17;7.50;99.90
28010;DHT22;15334;49.494;8.410;2024-03-08T21:00:46;7.50;99.90
28010;DHT22;15334;49.494;8.410;2024-03-08T21:03:21;7.60;99.90
28010;DHT22;15334;49.494;8.410;2024-03-08T21:05:50;7.60;99.90
28010;DHT22;15334;49.494;8.410;2024-03-08T21:08:20;7.60;99.90
28010;DHT22;15334;49.494;8.410;2024-03-08T21:10:51;7.70;99.90
28010;DHT22;15334;49.494;8.410;2024-03-08T21:13:22;7.70;99.90
28010;DHT22;15334;49.494;8.410;2024-03-08T21:15:51;7.70;99.90
28010;DHT22;15334;49.494;8.410;2024-03-08T21:18:20;7.70;99.90
28010;DHT22;15334;49.494;8.410;2024-03-08T21:20:48;7.70;99.90
28010;DHT22;15334;49.494;8.410;2024-03-08T21:23:17;7.70;99.90
28010;DHT22;15334;49.494;8.410;2024-03-08T21:25:46;7.60;99.90
28010;DHT22;15334;49.494;8.410;2024-03-08T21:28:14;7.60;99.90
28010;DHT22;15334;49.494;8.410;2024-03-08T21:30:46;7.50;99.90
28010;DHT22;15334;49.494;8.410;2024-03-08T21:33:14;7.40;99.90
28010;DHT22;15334;49.494;8.410;2024-03-08T21:35:43;7.40;99.90
28010;DHT22;15334;49.494;8.410;2024-03-08T21:38:11;7.30;99.90
